Time;durP1;ratioP1;P1;durP2;ratioP2;P2;SDS_P1;SDS_P2;PMS_P1;PMS_P2;Temp;Humidity;BMP_temperature;BMP_pressure;BME280_temperature;BME280_humidity;BME280_pressure;Samples;Min_cycle;Max_cycle;Signal;HPM_P1;HPM_P2
2024/04/09 00:00:41;;;;;;;26.97;5.80;;;20.20;71.20;;;;;;484285;245;29252;-72
2024/04/09 00:02:41;;;;;;;23.10;4.90;;;20.20;70.30;;;;;;484260;245;29390;-72
2024/04/09 00:04:42;;;;;;;22.63;5.63;;;20.20;71.10;;;;;;484298;245;28797;-72
2024/04/09 00:06:44;;;;;;;38.60;6.20;;;20.10;71.10;;;;;;484300;245;28853;-73
2024/04/09 00:08:45;;;;;;;32.73;4.93;;;20.00;71.90;;;;;;484336;245;28969;-75
2024/04/09 00:10:47;;;;;;;21.00;5.00;;;20.00;71.60;;;;;;484279;245;28863;-72
2024/04/09 00:12:47;;;;;;;33.33;5.83;;;20.00;72.30;;;;;;484223;245;28843;-73
2024/04/09 00:14:49;;;;;;;27.13;6.10;;;19.90;73.00;;;;;;484253;245;28816;-73
2024/04/09 00:16:53;;;;;;;23.30;4.50;;;19.80;72.90;;;;;;484307;245;29286;-73
2024/04/09 00:18:53;;;;;;;31.40;6.20;;;19.80;73.40;;;;;;484078;245;29393;-73
2024/04/09 00:20:53;;;;;;;26.73;4.57;;;19.80;72.90;;;;;;484176;245;29277;-72
2024/04/09 00:22:59;;;;;;;30.17;5.30;;;19.70;73.40;;;;;;484280;245;28941;-72
2024/04/09 00:24:57;;;;;;;27.33;5.70;;;19.60;72.80;;;;;;484107;245;28832;-72
2024/04/09 00:27:01;;;;;;;27.20;5.23;;;19.70;73.20;;;;;;484286;245;28801;-72
2024/04/09 00:29:00;;;;;;;32.17;5.93;;;19.60;73.40;;;;;;484175;245;28808;-72
2024/04/09 00:31:04;;;;;;;25.73;4.73;;;19.70;73.50;;;;;;484294;245;28841;-72
2024/04/09 00:33:03;;;;;;;26.00;5.23;;;19.70;73.50;;;;;;484124;245;29313;-72
2024/04/09 00:35:04;;;;;;;27.27;5.23;;;19.60;72.90;;;;;;484280;245;29311;-73
2024/04/09 00:37:05;;;;;;;12.67;4.53;;;19.70;73.50;;;;;;484323;245;28915;-72
2024/04/09 00:39:19;;;;;;;29.80;6.03;;;19.70;74.00;;;;;;484282;245;28842;-72
2024/04/09 00:41:10;;;;;;;30.90;5.23;;;19.60;73.60;;;;;;483311;245;28837;-73
2024/04/09 00:43:09;;;;;;;29.50;5.27;;;19.70;73.40;;;;;;484132;245;28893;-72
2024/04/09 00:45:10;;;;;;;36.73;5.10;;;19.60;73.10;;;;;;484255;245;28842;-73
2024/04/09 00:47:16;;;;;;;21.27;4.67;;;19.60;73.40;;;;;;484318;245;29243;-74
2024/04/09 00:49:13;;;;;;;23.90;5.33;;;19.50;74.00;;;;;;483974;245;28856;-72
2024/04/09 00:51:14;;;;;;;22.03;5.13;;;19.50;74.40;;;;;;484285;245;29322;-72
2024/04/09 00:53:16;;;;;;;24.83;5.00;;;19.40;74.50;;;;;;484142;245;29274;-72
2024/04/09 00:55:16;;;;;;;25.27;5.87;;;19.40;74.40;;;;;;484273;245;28922;-73
2024/04/09 00:57:18;;;;;;;22.47;4.53;;;19.40;74.10;;;;;;484304;245;28839;-73
2024/04/09 00:59:21;;;;;;;19.10;4.80;;;19.40;74.40;;;;;;484313;245;28969;-72
2024/04/09 01:01:20;;;;;;;21.13;4.70;;;19.40;74.30;;;;;;484132;245;28853;-72
2024/04/09 01:03:21;;;;;;;32.50;6.83;;;19.40;73.90;;;;;;484280;245;28834;-72
2024/04/09 01:05:23;;;;;;;21.57;4.50;;;19.40;72.80;;;;;;484347;245;28870;-72
2024/04/09 01:07:24;;;;;;;37.43;6.63;;;19.50;73.20;;;;;;484338;245;28841;-73
2024/04/09 01:09:25;;;;;;;24.63;5.90;;;19.70;72.20;;;;;;484309;245;29344;-72
2024/04/09 01:11:26;;;;;;;21.67;5.77;;;19.70;71.80;;;;;;484299;245;29321;-72
2024/04/09 01:13:28;;;;;;;35.90;7.30;;;19.80;72.30;;;;;;484322;245;28984;-73
2024/04/09 01:15:30;;;;;;;30.63;5.50;;;19.90;71.10;;;;;;484277;245;28812;-73
2024/04/09 01:17:31;;;;;;;28.23;6.27;;;19.90;71.20;;;;;;484274;245;28843;-73
2024/04/09 01:19:31;;;;;;;39.20;6.07;;;19.90;70.80;;;;;;484236;245;28803;-72
2024/04/09 01:21:33;;;;;;;24.53;5.30;;;19.80;71.70;;;;;;484319;245;28962;-73
2024/04/09 01:23:34;;;;;;;36.03;7.00;;;19.90;71.50;;;;;;484340;245;28876;-72
2024/04/09 01:25:36;;;;;;;32.90;6.30;;;19.80;71.90;;;;;;484332;245;28935;-72
2024/04/09 01:27:37;;;;;;;24.53;5.43;;;19.80;71.90;;;;;;484260;245;29310;-73
2024/04/09 01:29:38;;;;;;;37.73;6.17;;;19.80;70.90;;;;;;484284;245;30383;-72
2024/04/09 01:31:39;;;;;;;16.07;4.67;;;19.80;70.80;;;;;;484342;245;28828;-72
2024/04/09 01:33:40;;;;;;;23.53;4.70;;;19.80;71.10;;;;;;484312;245;28884;-73
2024/04/09 01:35:42;;;;;;;36.20;6.97;;;19.80;71.80;;;;;;484307;245;28901;-72
2024/04/09 01:37:43;;;;;;;25.13;5.03;;;19.70;71.80;;;;;;484245;245;28872;-73
2024/04/09 01:39:45;;;;;;;31.40;6.30;;;19.70;71.30;;;;;;484308;245;28815;-73
2024/04/09 01:41:46;;;;;;;37.47;6.97;;;19.80;71.20;;;;;;484272;245;28830;-72
2024/04/09 01:43:46;;;;;;;22.87;4.77;;;19.70;70.80;;;;;;484274;245;28941;-73
2024/04/09 01:45:48;;;;;;;34.90;5.70;;;19.70;71.30;;;;;;484313;245;29236;-72
2024/04/09 01:47:49;;;;;;;30.30;5.73;;;19.70;71.40;;;;;;484315;245;29398;-72
2024/04/09 01:49:50;;;;;;;34.20;5.33;;;19.70;71.10;;;;;;484333;245;28944;-74
2024/04/09 01:51:51;;;;;;;28.37;5.80;;;19.60;70.90;;;;;;484320;245;28834;-72
2024/04/09 01:53:53;;;;;;;28.03;5.10;;;19.50;71.80;;;;;;484274;245;28868;-73
2024/04/09 01:55:54;;;;;;;17.27;4.67;;;19.50;71.70;;;;;;484290;245;28799;-72
2024/04/09 01:57:55;;;;;;;34.23;5.90;;;19.40;72.50;;;;;;484295;245;28850;-72
2024/04/09 01:59:56;;;;;;;38.10;6.67;;;19.40;72.30;;;;;;484295;245;28934;-74
2024/04/09 02:01:58;;;;;;;20.67;4.50;;;19.30;72.60;;;;;;484289;245;28815;-72
2024/04/09 02:03:59;;;;;;;22.63;4.80;;;19.20;73.00;;;;;;484261;245;29275;-73
2024/04/09 02:06:00;;;;;;;28.30;4.60;;;19.20;73.10;;;;;;484300;245;30135;-75
2024/04/09 02:08:01;;;;;;;20.00;4.60;;;19.10;73.40;;;;;;484336;245;28767;-72
2024/04/09 02:10:03;;;;;;;24.03;4.70;;;19.10;73.50;;;;;;484314;245;28926;-72
2024/04/09 02:12:04;;;;;;;22.23;4.70;;;19.00;73.70;;;;;;484299;245;28807;-72
2024/04/09 02:14:05;;;;;;;16.67;3.63;;;19.00;74.10;;;;;;484303;245;28965;-72
2024/04/09 02:16:10;;;;;;;19.80;4.80;;;19.00;74.30;;;;;;484339;245;29207;-73
2024/04/09 02:18:11;;;;;;;16.40;4.50;;;18.90;74.70;;;;;;484322;245;29345;-72
2024/04/09 02:20:13;;;;;;;26.93;4.80;;;18.80;75.00;;;;;;484311;245;28825;-72
2024/04/09 02:22:13;;;;;;;13.50;3.80;;;18.80;75.30;;;;;;484234;245;28849;-73
2024/04/09 02:24:15;;;;;;;16.50;4.37;;;18.90;75.30;;;;;;484326;245;28896;-72
2024/04/09 02:26:16;;;;;;;18.40;4.57;;;18.80;75.80;;;;;;484345;245;28847;-72
2024/04/09 02:28:17;;;;;;;16.13;4.00;;;18.80;75.30;;;;;;484291;245;28865;-72
2024/04/09 02:30:19;;;;;;;17.60;4.17;;;18.80;75.70;;;;;;484316;245;28810;-72
2024/04/09 02:32:20;;;;;;;28.33;4.07;;;18.80;75.80;;;;;;484278;245;28921;-72
2024/04/09 02:34:24;;;;;;;29.17;5.43;;;18.70;76.40;;;;;;484323;245;29339;-73
2024/04/09 02:36:22;;;;;;;27.50;4.80;;;18.70;76.70;;;;;;484137;245;28911;-72
2024/04/09 02:38:23;;;;;;;45.43;5.10;;;18.70;76.70;;;;;;484317;245;28841;-72
2024/04/09 02:40:25;;;;;;;12.30;3.83;;;18.70;76.90;;;;;;484313;245;28812;-72
2024/04/09 02:42:26;;;;;;;14.00;2.93;;;18.60;77.00;;;;;;484178;245;29198;-72
2024/04/09 02:44:29;;;;;;;9.70;3.40;;;18.50;77.70;;;;;;484340;245;28958;-72
2024/04/09 02:46:28;;;;;;;13.50;3.70;;;18.50;78.10;;;;;;484203;245;29257;-72
2024/04/09 02:48:30;;;;;;;19.43;5.27;;;18.40;78.10;;;;;;484281;245;29348;-72
2024/04/09 02:50:31;;;;;;;21.53;3.53;;;18.40;78.60;;;;;;484310;245;30200;-72
2024/04/09 02:52:32;;;;;;;10.93;3.27;;;18.30;79.40;;;;;;484329;245;28886;-72
2024/04/09 02:54:33;;;;;;;17.43;2.90;;;18.30;80.10;;;;;;484301;245;28868;-71
2024/04/09 02:56:35;;;;;;;16.50;2.97;;;18.10;81.10;;;;;;484246;245;28826;-73
2024/04/09 02:58:36;;;;;;;9.13;2.60;;;18.00;82.30;;;;;;484305;245;29205;-73
2024/04/09 03:00:38;;;;;;;18.70;3.17;;;17.90;82.50;;;;;;484336;245;29356;-72
2024/04/09 03:02:39;;;;;;;9.77;2.47;;;17.90;83.20;;;;;;484289;245;28826;-72
2024/04/09 03:04:41;;;;;;;8.17;2.70;;;17.80;83.80;;;;;;484296;245;28847;-72
2024/04/09 03:06:41;;;;;;;15.60;3.03;;;17.70;84.30;;;;;;484232;245;29247;-71
2024/04/09 03:08:42;;;;;;;9.33;2.50;;;17.60;84.40;;;;;;484312;245;29454;-71
2024/04/09 03:10:43;;;;;;;15.53;3.20;;;17.60;85.20;;;;;;484304;245;29337;-74
2024/04/09 03:12:45;;;;;;;5.50;2.50;;;17.40;86.10;;;;;;484291;245;28825;-72
2024/04/09 03:14:46;;;;;;;6.07;2.73;;;17.30;86.70;;;;;;484311;245;28856;-72
2024/04/09 03:16:47;;;;;;;11.07;3.47;;;17.30;87.10;;;;;;484317;245;28958;-71
2024/04/09 03:18:48;;;;;;;11.97;2.70;;;17.20;87.60;;;;;;484319;245;28834;-73
2024/04/09 03:20:50;;;;;;;5.97;2.90;;;17.10;88.40;;;;;;484326;245;28845;-74
2024/04/09 03:22:51;;;;;;;6.43;2.40;;;17.10;88.20;;;;;;484321;245;28810;-73
2024/04/09 03:24:52;;;;;;;7.00;2.30;;;17.10;88.00;;;;;;484297;245;28877;-72
2024/04/09 03:26:53;;;;;;;13.23;2.67;;;17.00;89.10;;;;;;484281;245;29427;-74
2024/04/09 03:28:55;;;;;;;9.83;2.40;;;16.80;89.60;;;;;;484333;245;29415;-72
2024/04/09 03:30:56;;;;;;;5.13;2.30;;;16.80;90.00;;;;;;484308;245;29719;-72
2024/04/09 03:32:58;;;;;;;7.60;2.40;;;16.70;90.10;;;;;;484287;245;28817;-71
2024/04/09 03:34:59;;;;;;;9.77;2.67;;;16.50;90.60;;;;;;484294;245;28873;-72
2024/04/09 03:37:00;;;;;;;10.93;2.60;;;16.40;90.80;;;;;;484327;245;29052;-74
2024/04/09 03:39:04;;;;;;;5.33;1.87;;;16.40;90.80;;;;;;484323;245;28915;-72
2024/04/09 03:41:02;;;;;;;7.63;2.30;;;16.40;91.00;;;;;;484137;245;28849;-71
2024/04/09 03:43:04;;;;;;;10.30;2.50;;;16.30;91.30;;;;;;484286;245;28805;-73
2024/04/09 03:45:09;;;;;;;3.90;2.20;;;16.30;91.30;;;;;;484311;245;28852;-72
2024/04/09 03:47:07;;;;;;;7.10;2.20;;;16.30;91.20;;;;;;484088;245;29224;-71
2024/04/09 03:49:07;;;;;;;11.37;2.27;;;16.40;91.30;;;;;;484265;245;28810;-72
2024/04/09 03:51:08;;;;;;;5.80;2.17;;;16.30;91.40;;;;;;484324;245;29402;-72
2024/04/09 03:53:10;;;;;;;5.10;2.10;;;16.40;91.10;;;;;;484302;245;29241;-70
2024/04/09 03:55:11;;;;;;;15.40;2.67;;;16.30;91.50;;;;;;484333;245;29267;-73
2024/04/09 03:57:13;;;;;;;11.03;2.30;;;16.30;91.80;;;;;;484221;245;28870;-73
2024/04/09 03:59:14;;;;;;;4.33;1.80;;;16.20;92.00;;;;;;484323;245;28820;-73
2024/04/09 04:01:16;;;;;;;7.47;1.80;;;16.10;92.00;;;;;;484310;245;28846;-74
2024/04/09 04:03:16;;;;;;;7.20;1.70;;;16.10;92.30;;;;;;484285;245;29204;-74
2024/04/09 04:05:17;;;;;;;6.23;1.90;;;16.00;92.40;;;;;;484348;245;28885;-72
2024/04/09 04:07:18;;;;;;;5.27;1.70;;;16.00;92.70;;;;;;484332;245;28856;-74
2024/04/09 04:09:23;;;;;;;6.77;1.80;;;15.90;92.80;;;;;;484345;245;28793;-73
2024/04/09 04:11:21;;;;;;;2.83;1.57;;;15.80;93.10;;;;;;484074;245;28838;-74
2024/04/09 04:13:22;;;;;;;5.10;1.63;;;15.80;93.10;;;;;;484243;245;29335;-72
2024/04/09 04:15:24;;;;;;;6.93;1.90;;;15.70;93.30;;;;;;484253;245;29370;-70
2024/04/09 04:17:25;;;;;;;4.77;1.80;;;15.60;93.40;;;;;;484252;245;29335;-71
2024/04/09 04:19:26;;;;;;;6.10;1.77;;;15.70;93.40;;;;;;484255;245;29169;-73
2024/04/09 04:21:27;;;;;;;3.60;2.00;;;15.70;93.50;;;;;;484250;245;28891;-73
2024/04/09 04:23:29;;;;;;;3.67;1.60;;;15.60;93.60;;;;;;484301;245;28856;-72
2024/04/09 04:25:30;;;;;;;6.97;1.80;;;15.50;93.90;;;;;;484288;245;28820;-71
2024/04/09 04:27:31;;;;;;;4.40;1.97;;;15.50;94.70;;;;;;484263;245;28876;-71
2024/04/09 04:29:32;;;;;;;4.13;1.70;;;15.30;95.30;;;;;;484335;245;28865;-70
2024/04/09 04:31:34;;;;;;;2.90;1.93;;;15.20;95.70;;;;;;484343;245;28903;-73
2024/04/09 04:33:35;;;;;;;4.87;1.83;;;15.10;96.30;;;;;;484334;245;28828;-73
2024/04/09 04:35:36;;;;;;;3.10;1.60;;;15.00;97.00;;;;;;484323;245;29256;-73
2024/04/09 04:37:37;;;;;;;5.93;1.73;;;15.00;97.10;;;;;;484292;245;29284;-73
2024/04/09 04:39:39;;;;;;;2.83;1.27;;;15.00;97.40;;;;;;484320;245;29323;-72
2024/04/09 04:41:40;;;;;;;3.17;1.70;;;14.90;97.70;;;;;;484196;245;29340;-72
2024/04/09 04:43:41;;;;;;;5.80;1.60;;;14.90;97.90;;;;;;484316;245;28895;-72
2024/04/09 04:45:42;;;;;;;4.50;1.83;;;14.80;98.20;;;;;;484272;245;28799;-73
2024/04/09 04:47:44;;;;;;;7.10;1.90;;;14.80;98.50;;;;;;484296;245;28810;-73
2024/04/09 04:49:45;;;;;;;3.47;1.77;;;14.80;98.30;;;;;;484331;245;28833;-73
2024/04/09 04:51:46;;;;;;;3.00;1.40;;;14.90;98.10;;;;;;484306;245;29228;-73
2024/04/09 04:53:47;;;;;;;4.10;1.83;;;14.90;98.20;;;;;;484266;245;28853;-74
2024/04/09 04:55:51;;;;;;;2.33;1.60;;;14.90;98.10;;;;;;484338;245;28856;-72
2024/04/09 04:57:53;;;;;;;6.37;1.90;;;14.90;98.10;;;;;;484328;245;28887;-74
2024/04/09 04:59:55;;;;;;;7.40;1.90;;;14.90;98.30;;;;;;484311;245;28824;-73
2024/04/09 05:01:56;;;;;;;4.23;2.27;;;14.80;98.60;;;;;;484239;245;28892;-71
2024/04/09 05:03:56;;;;;;;5.60;2.00;;;14.70;98.60;;;;;;484223;245;28864;-73
2024/04/09 05:05:58;;;;;;;2.30;1.60;;;14.70;99.00;;;;;;484296;245;28932;-73
2024/04/09 05:07:59;;;;;;;2.93;1.77;;;14.60;99.00;;;;;;484314;245;28877;-73
2024/04/09 05:10:00;;;;;;;6.93;1.67;;;14.60;99.10;;;;;;484290;245;28810;-72
2024/04/09 05:12:04;;;;;;;6.03;1.70;;;14.60;99.00;;;;;;484273;245;29361;-73
2024/04/09 05:14:03;;;;;;;6.87;1.70;;;14.40;99.20;;;;;;484123;245;30154;-72
2024/04/09 05:16:04;;;;;;;2.33;1.60;;;14.40;99.40;;;;;;484320;245;29367;-72
2024/04/09 05:18:07;;;;;;;4.50;2.10;;;14.50;99.00;;;;;;484320;245;28816;-73
2024/04/09 05:20:14;;;;;;;6.17;1.50;;;14.50;98.90;;;;;;484236;245;28869;-73
2024/04/09 05:22:17;;;;;;;3.10;1.20;;;14.50;98.90;;;;;;484196;245;28877;-72
2024/04/09 05:24:15;;;;;;;3.33;1.57;;;14.40;98.90;;;;;;484055;245;28948;-72
2024/04/09 05:26:17;;;;;;;3.70;1.60;;;14.40;98.90;;;;;;484309;245;28793;-73
2024/04/09 05:28:17;;;;;;;3.40;1.10;;;14.30;98.50;;;;;;484230;245;28843;-74
2024/04/09 05:30:19;;;;;;;2.03;1.50;;;14.30;98.50;;;;;;484264;245;28806;-73
2024/04/09 05:32:20;;;;;;;1.37;1.20;;;14.20;98.60;;;;;;484306;245;28851;-73
2024/04/09 05:34:21;;;;;;;3.10;1.33;;;14.20;98.60;;;;;;484327;245;28906;-72
2024/04/09 05:36:22;;;;;;;1.17;1.07;;;14.20;98.80;;;;;;484308;245;29421;-72
2024/04/09 05:38:24;;;;;;;2.13;1.50;;;14.20;98.80;;;;;;484310;245;29322;-72
2024/04/09 05:40:25;;;;;;;1.80;1.17;;;14.10;98.70;;;;;;484302;245;28933;-73
2024/04/09 05:42:26;;;;;;;1.93;1.00;;;14.10;98.80;;;;;;484306;245;28826;-72
2024/04/09 05:44:27;;;;;;;3.77;1.43;;;14.00;98.60;;;;;;483833;245;28860;-73
2024/04/09 05:46:29;;;;;;;1.10;1.00;;;13.90;98.80;;;;;;483545;245;28879;-72
2024/04/09 05:48:30;;;;;;;1.30;1.20;;;13.90;98.80;;;;;;483697;245;28881;-73
2024/04/09 05:50:32;;;;;;;2.10;1.10;;;13.90;98.80;;;;;;483935;245;28929;-71
2024/04/09 05:52:34;;;;;;;2.47;1.50;;;13.90;98.70;;;;;;484299;245;28834;-70
2024/04/09 05:54:34;;;;;;;2.80;1.10;;;13.90;98.80;;;;;;484201;245;28845;-74
2024/04/09 05:56:35;;;;;;;5.73;1.30;;;13.90;98.80;;;;;;484302;245;28496;-70
2024/04/09 05:58:36;;;;;;;1.50;1.40;;;13.90;98.90;;;;;;484276;245;29322;-71
2024/04/09 06:00:38;;;;;;;2.10;1.80;;;13.80;99.10;;;;;;484346;245;29352;-74
2024/04/09 06:02:39;;;;;;;1.53;1.43;;;13.70;99.40;;;;;;484294;245;29252;-70
2024/04/09 06:04:40;;;;;;;2.00;1.70;;;13.70;99.70;;;;;;484315;245;28843;-72
2024/04/09 06:06:41;;;;;;;2.53;1.83;;;13.50;99.90;;;;;;484302;245;28823;-73
2024/04/09 06:08:45;;;;;;;2.53;1.87;;;;;;;;;;484329;245;28887;-74
2024/04/09 06:10:46;;;;;;;1.67;1.57;;;13.10;99.90;;;;;;484316;242;26444;-72
2024/04/09 06:12:47;;;;;;;1.73;1.50;;;13.10;99.90;;;;;;484301;245;28556;-73
2024/04/09 06:14:49;;;;;;;1.40;1.30;;;13.10;99.90;;;;;;484299;245;28573;-71
2024/04/09 06:16:50;;;;;;;1.50;1.40;;;13.20;99.90;;;;;;484324;245;28847;-72
2024/04/09 06:18:51;;;;;;;3.13;1.33;;;13.20;99.90;;;;;;484322;245;29371;-73
2024/04/09 06:20:52;;;;;;;2.20;1.20;;;13.20;99.90;;;;;;484316;245;29306;-73
2024/04/09 06:22:54;;;;;;;8.83;1.30;;;13.00;99.90;;;;;;484318;245;30015;-72
2024/04/09 06:24:56;;;;;;;2.30;1.10;;;12.90;99.90;;;;;;484338;245;29281;-72
2024/04/09 06:26:56;;;;;;;1.90;1.00;;;12.90;99.90;;;;;;484275;245;28483;-73
2024/04/09 06:28:57;;;;;;;1.03;1.00;;;12.60;99.90;;;;;;484319;245;28942;-72
2024/04/09 06:30:59;;;;;;;1.47;1.00;;;12.20;99.90;;;;;;484308;245;28451;-70
2024/04/09 06:33:00;;;;;;;1.23;1.10;;;11.90;99.90;;;;;;484327;245;28513;-75
2024/04/09 06:35:02;;;;;;;1.57;0.90;;;11.50;99.90;;;;;;484313;245;28287;-73
2024/04/09 06:37:02;;;;;;;2.03;1.20;;;11.40;99.90;;;;;;484289;245;28283;-73
2024/04/09 06:39:05;;;;;;;0.80;0.80;;;11.30;99.90;;;;;;484305;245;28276;-73
2024/04/09 06:41:05;;;;;;;4.10;0.90;;;11.40;99.90;;;;;;484298;245;28285;-72
2024/04/09 06:43:06;;;;;;;3.00;1.10;;;11.30;99.90;;;;;;484227;245;28259;-75
2024/04/09 06:45:07;;;;;;;1.20;0.80;;;11.40;99.90;;;;;;484294;245;28199;-72
2024/04/09 06:47:09;;;;;;;2.70;0.90;;;11.50;99.90;;;;;;484283;245;28219;-72
2024/04/09 06:49:10;;;;;;;0.80;0.80;;;11.50;99.90;;;;;;484311;245;28280;-73
2024/04/09 06:51:11;;;;;;;2.67;0.90;;;11.40;99.90;;;;;;484329;245;28226;-72
2024/04/09 06:53:12;;;;;;;3.17;0.83;;;11.30;99.60;;;;;;484315;245;28752;-72
2024/04/09 06:55:14;;;;;;;1.00;0.90;;;11.30;99.90;;;;;;484292;245;28604;-72
2024/04/09 06:57:15;;;;;;;1.43;0.90;;;11.40;99.90;;;;;;484313;245;28934;-74
2024/04/09 06:59:16;;;;;;;1.90;0.80;;;11.40;99.40;;;;;;484340;245;28313;-72
2024/04/09 07:01:17;;;;;;;3.33;1.00;;;11.50;99.50;;;;;;484348;245;28343;-73
2024/04/09 07:03:20;;;;;;;1.00;1.00;;;11.50;98.50;;;;;;484286;245;28386;-74
2024/04/09 07:05:20;;;;;;;2.77;1.00;;;11.60;97.50;;;;;;484258;245;28795;-71
2024/04/09 07:07:21;;;;;;;2.87;1.20;;;11.50;97.40;;;;;;484293;245;28411;-72
2024/04/09 07:09:22;;;;;;;2.23;0.90;;;11.30;97.00;;;;;;484356;245;28668;-72
2024/04/09 07:11:24;;;;;;;2.70;0.90;;;11.30;96.70;;;;;;484326;245;28279;-71
2024/04/09 07:13:25;;;;;;;2.83;1.40;;;11.20;96.20;;;;;;484270;245;28663;-71
2024/04/09 07:15:26;;;;;;;1.57;0.90;;;11.10;96.00;;;;;;484310;245;28502;-70
2024/04/09 07:17:28;;;;;;;1.13;0.80;;;11.30;96.30;;;;;;484303;245;28973;-70
2024/04/09 07:19:29;;;;;;;0.80;0.80;;;11.20;96.30;;;;;;484310;245;29322;-72
2024/04/09 07:21:31;;;;;;;1.13;0.90;;;;;;;;;;484277;245;28870;-71
2024/04/09 07:23:33;;;;;;;2.10;0.93;;;11.30;95.90;;;;;;484292;245;27037;-70
2024/04/09 07:25:34;;;;;;;1.37;0.90;;;11.40;95.70;;;;;;484328;245;28890;-71
2024/04/09 07:27:35;;;;;;;3.57;1.47;;;11.50;95.50;;;;;;484323;245;28222;-74
2024/04/09 07:29:36;;;;;;;3.47;1.20;;;11.50;95.30;;;;;;484318;245;28792;-72
2024/04/09 07:31:37;;;;;;;1.90;0.87;;;11.50;95.40;;;;;;484281;245;28901;-73
2024/04/09 07:33:39;;;;;;;1.20;1.10;;;11.50;95.40;;;;;;484317;245;28873;-73
2024/04/09 07:35:40;;;;;;;0.70;0.70;;;11.50;95.40;;;;;;484317;245;28378;-72
2024/04/09 07:37:41;;;;;;;1.57;0.83;;;11.50;95.10;;;;;;484351;245;28331;-73
2024/04/09 07:39:44;;;;;;;1.60;1.00;;;;;;;;;;484310;245;28210;-72
2024/04/09 07:41:45;;;;;;;2.90;1.00;;;11.40;94.80;;;;;;484284;245;26758;-73
2024/04/09 07:43:47;;;;;;;1.33;1.03;;;11.40;94.80;;;;;;484341;245;28711;-71
2024/04/09 07:45:47;;;;;;;1.70;1.00;;;11.40;94.90;;;;;;484300;245;29326;-73
2024/04/09 07:47:51;;;;;;;2.50;1.27;;;11.50;94.60;;;;;;484303;245;28496;-70
2024/04/09 07:49:50;;;;;;;3.80;1.23;;;11.40;94.40;;;;;;484163;245;28177;-71
2024/04/09 07:51:51;;;;;;;1.63;0.90;;;11.40;94.30;;;;;;484319;245;28479;-75
2024/04/09 07:53:54;;;;;;;7.40;1.10;;;;;;;;;;484325;242;28435;-74
2024/04/09 07:55:58;;;;;;;1.93;1.10;;;;;;;;;;484299;245;26701;-71
2024/04/09 07:57:59;;;;;;;3.03;1.00;;;11.10;95.60;;;;;;484313;245;27249;-74
2024/04/09 08:00:00;;;;;;;4.37;1.00;;;11.10;95.00;;;;;;484306;245;28679;-71
2024/04/09 08:02:01;;;;;;;2.93;1.27;;;11.00;95.30;;;;;;484309;245;28388;-73
2024/04/09 08:04:02;;;;;;;3.60;1.33;;;11.00;95.40;;;;;;484309;245;28305;-71
2024/04/09 08:06:04;;;;;;;3.97;0.93;;;10.80;95.70;;;;;;484322;245;28346;-71
2024/04/09 08:08:05;;;;;;;2.40;0.90;;;10.70;96.30;;;;;;484337;245;28366;-73
2024/04/09 08:10:14;;;;;;;2.37;0.80;;;;;;;;;;484352;245;28097;-73
2024/04/09 08:12:15;;;;;;;6.17;1.13;;;10.80;96.20;;;;;;484355;245;27712;-71
2024/04/09 08:14:16;;;;;;;2.50;1.13;;;10.70;96.80;;;;;;484323;245;28271;-71
2024/04/09 08:16:17;;;;;;;2.00;1.07;;;10.70;97.00;;;;;;484333;245;28803;-70
2024/04/09 08:18:18;;;;;;;1.50;1.00;;;10.60;96.60;;;;;;484302;245;28550;-71
2024/04/09 08:20:21;;;;;;;4.30;1.10;;;;;;;;;;484299;245;28506;-72
2024/04/09 08:22:22;;;;;;;4.13;1.17;;;10.40;96.70;;;;;;484273;245;27932;-71
2024/04/09 08:24:23;;;;;;;1.30;1.00;;;10.60;97.00;;;;;;484318;245;29008;-71
2024/04/09 08:26:25;;;;;;;1.53;1.10;;;10.70;96.80;;;;;;484343;245;28377;-71
2024/04/09 08:28:26;;;;;;;1.30;1.20;;;10.60;97.30;;;;;;484351;245;28238;-72
2024/04/09 08:30:28;;;;;;;2.80;1.10;;;10.60;97.30;;;;;;484329;245;28483;-71
2024/04/09 08:32:29;;;;;;;2.50;1.20;;;10.60;97.40;;;;;;484229;245;28547;-71
2024/04/09 08:34:31;;;;;;;1.70;1.00;;;;;;;;;;484325;242;28521;-71
2024/04/09 08:36:32;;;;;;;2.30;1.07;;;10.50;97.90;;;;;;484331;245;27676;-72
2024/04/09 08:38:33;;;;;;;3.93;1.57;;;10.50;97.80;;;;;;484333;245;28337;-70
2024/04/09 08:40:35;;;;;;;3.40;1.20;;;10.50;97.90;;;;;;484333;245;28549;-71
2024/04/09 08:42:37;;;;;;;3.63;1.40;;;10.60;98.00;;;;;;484345;245;28460;-71
2024/04/09 08:44:37;;;;;;;3.10;1.40;;;10.50;97.30;;;;;;484266;245;28088;-71
2024/04/09 08:46:39;;;;;;;5.20;1.80;;;10.40;98.10;;;;;;484340;245;28877;-72
2024/04/09 08:48:40;;;;;;;2.80;1.07;;;10.40;97.80;;;;;;484317;245;28376;-73
2024/04/09 08:50:41;;;;;;;1.10;1.00;;;10.50;97.80;;;;;;484283;245;28437;-71
2024/04/09 08:52:42;;;;;;;2.00;1.03;;;10.60;97.40;;;;;;484322;245;28389;-72
2024/04/09 08:54:43;;;;;;;2.23;1.00;;;10.60;97.10;;;;;;484311;245;28834;-73
2024/04/09 08:56:45;;;;;;;3.00;1.10;;;10.50;97.10;;;;;;484287;245;28791;-72
2024/04/09 08:58:46;;;;;;;2.20;1.00;;;10.60;97.20;;;;;;484288;245;29295;-70
2024/04/09 09:00:47;;;;;;;3.53;1.00;;;10.40;96.90;;;;;;484341;245;28574;-73
2024/04/09 09:02:48;;;;;;;2.37;1.20;;;10.30;96.90;;;;;;484296;245;28442;-71
2024/04/09 09:04:51;;;;;;;1.77;1.00;;;10.30;98.30;;;;;;484310;245;28020;-70
2024/04/09 09:06:51;;;;;;;4.17;1.23;;;10.40;98.10;;;;;;484202;245;28514;-72
2024/04/09 09:08:52;;;;;;;4.33;1.20;;;10.40;97.80;;;;;;484334;245;28267;-71
2024/04/09 09:10:53;;;;;;;1.90;1.10;;;10.30;98.40;;;;;;484314;245;28401;-73
2024/04/09 09:12:55;;;;;;;1.87;1.20;;;10.40;98.60;;;;;;484315;245;28095;-72
2024/04/09 09:15:00;;;;;;;2.80;1.00;;;10.50;98.10;;;;;;484282;245;28597;-70
2024/04/09 09:16:57;;;;;;;1.73;1.40;;;10.40;98.20;;;;;;483984;245;28370;-71
2024/04/09 09:18:58;;;;;;;2.30;1.20;;;10.50;98.50;;;;;;484310;245;28816;-72
2024/04/09 09:21:00;;;;;;;4.43;1.33;;;10.40;98.00;;;;;;484300;245;28870;-71
2024/04/09 09:23:01;;;;;;;5.50;1.20;;;10.30;98.10;;;;;;484285;245;29308;-72
2024/04/09 09:25:05;;;;;;;1.33;0.93;;;10.40;98.50;;;;;;484291;245;28161;-71
2024/04/09 09:27:04;;;;;;;5.00;1.50;;;10.50;98.90;;;;;;484121;245;28387;-71
2024/04/09 09:29:07;;;;;;;4.40;1.30;;;10.40;98.70;;;;;;484327;245;28126;-73
2024/04/09 09:31:06;;;;;;;3.43;1.40;;;10.40;98.60;;;;;;484193;245;28507;-70
2024/04/09 09:33:07;;;;;;;3.23;1.53;;;10.20;99.60;;;;;;484307;245;28557;-72
2024/04/09 09:35:08;;;;;;;6.53;1.63;;;10.30;99.90;;;;;;484294;245;28437;-71
2024/04/09 09:37:10;;;;;;;3.73;1.30;;;10.30;99.20;;;;;;484297;245;28516;-71
2024/04/09 09:39:14;;;;;;;2.37;1.27;;;10.30;99.60;;;;;;484307;245;28421;-72
2024/04/09 09:41:12;;;;;;;2.90;1.40;;;10.20;99.90;;;;;;484075;245;28395;-71
2024/04/09 09:43:13;;;;;;;5.30;1.40;;;10.10;99.70;;;;;;484256;245;28811;-74
2024/04/09 09:45:15;;;;;;;5.53;1.70;;;10.10;99.90;;;;;;484279;245;28989;-75
2024/04/09 09:47:16;;;;;;;1.53;1.10;;;10.10;99.90;;;;;;484295;245;28719;-72
2024/04/09 09:49:17;;;;;;;4.27;1.33;;;10.10;99.90;;;;;;484314;245;28896;-73
2024/04/09 09:51:19;;;;;;;4.07;1.30;;;10.00;99.90;;;;;;484285;245;28415;-71
2024/04/09 09:53:20;;;;;;;3.23;1.20;;;9.90;99.90;;;;;;484288;245;28233;-74
2024/04/09 09:55:21;;;;;;;9.17;1.37;;;9.90;99.90;;;;;;484314;245;28331;-71
2024/04/09 09:57:22;;;;;;;4.10;1.50;;;9.70;99.90;;;;;;484313;245;28253;-72
2024/04/09 09:59:23;;;;;;;3.03;0.97;;;9.60;99.90;;;;;;484324;245;28343;-71
2024/04/09 10:01:25;;;;;;;3.80;1.30;;;9.60;99.90;;;;;;484277;245;28191;-71
2024/04/09 10:03:26;;;;;;;3.37;1.27;;;9.60;99.90;;;;;;484284;245;28230;-72
2024/04/09 10:05:27;;;;;;;2.70;1.30;;;9.60;99.90;;;;;;484324;245;28078;-72
2024/04/09 10:07:29;;;;;;;2.70;1.17;;;9.60;99.90;;;;;;484247;245;28209;-71
2024/04/09 10:09:32;;;;;;;2.13;1.40;;;9.70;99.90;;;;;;484277;245;28127;-72
2024/04/09 10:11:31;;;;;;;7.30;1.30;;;9.80;99.90;;;;;;484150;245;28169;-71
2024/04/09 10:13:32;;;;;;;1.67;1.10;;;9.80;99.90;;;;;;484303;245;28155;-71
2024/04/09 10:15:34;;;;;;;1.40;1.07;;;9.80;99.20;;;;;;484312;245;28208;-72
2024/04/09 10:17:35;;;;;;;3.90;1.33;;;9.90;99.50;;;;;;484216;245;28744;-71
2024/04/09 10:19:36;;;;;;;3.30;1.20;;;10.00;99.00;;;;;;484300;245;28672;-71
2024/04/09 10:21:37;;;;;;;1.20;1.10;;;9.90;99.50;;;;;;484307;245;28874;-73
2024/04/09 10:23:39;;;;;;;3.50;1.20;;;9.90;98.70;;;;;;484300;245;28914;-71
2024/04/09 10:25:40;;;;;;;2.63;1.13;;;9.90;99.10;;;;;;484284;245;28405;-74
2024/04/09 10:27:41;;;;;;;1.87;1.07;;;9.90;98.80;;;;;;484305;245;28487;-71
2024/04/09 10:29:42;;;;;;;1.77;1.03;;;10.10;99.00;;;;;;484302;245;28340;-72
2024/04/09 10:31:43;;;;;;;2.50;0.93;;;10.00;99.00;;;;;;484331;245;28402;-72